Weather at Everett-Stewart Regional Airport

Public forecast

Using degrees Fahrenheit for public forecast. Weather courtesy of forecast.io.

Current aviation weather report (METAR) for Everett-Stewart Regional Airport

Retrieved 2022/01/24 04:15 UTC (10 minutes ago):

KUCY 240415Z AUTO 04005KT 10SM CLR M00/M05 A3001 RMK A01

Closest aviation forecast (TAF) to Everett-Stewart Regional Airport

Closest forecast is Barkley Regional Airport, 42.0 nm (77.8 km) NNE. Retrieved 2022-01-24 00:22 UTC (4 hours ago):

TAF KPAH 232320Z 2400/2424 36007KT P6SM BKN250 FM240700 VRB03KT P6SM BKN100 FM241400 22011G20KT P6SM BKN200